createdAt,value
2018-08-18T00:00:34.071Z,72.40
2018-08-18T00:03:01.423Z,72.60
2018-08-18T00:05:28.744Z,72.90
2018-08-18T00:07:56.101Z,73.00
2018-08-18T00:10:23.447Z,72.90
2018-08-18T00:12:50.796Z,72.70
2018-08-18T00:15:18.134Z,72.60
2018-08-18T00:17:45.465Z,72.60
2018-08-18T00:20:16.543Z,72.90
2018-08-18T00:22:43.939Z,73.00
2018-08-18T00:25:11.285Z,72.90
2018-08-18T00:27:38.634Z,73.00
2018-08-18T00:30:07.800Z,72.80
2018-08-18T00:32:35.091Z,72.80
2018-08-18T00:35:02.402Z,73.00
2018-08-18T00:37:29.703Z,73.00
2018-08-18T00:39:57.030Z,72.90
2018-08-18T00:42:24.352Z,72.60
2018-08-18T00:44:51.653Z,72.90
2018-08-18T00:47:18.959Z,73.00
2018-08-18T00:49:46.316Z,73.20
2018-08-18T00:52:14.397Z,73.00
2018-08-18T00:54:41.713Z,73.10
2018-08-18T00:57:20.526Z,73.20
2018-08-18T00:59:47.835Z,73.20
2018-08-18T01:02:15.150Z,73.00
2018-08-18T01:04:42.490Z,73.00
2018-08-18T01:07:09.788Z,73.10
2018-08-18T01:09:40.760Z,73.00
2018-08-18T01:12:08.138Z,72.70
2018-08-18T01:14:35.504Z,72.60
2018-08-18T01:17:02.822Z,72.70
2018-08-18T01:19:30.145Z,72.80
2018-08-18T01:21:57.439Z,73.00
2018-08-18T01:24:24.734Z,73.00
2018-08-18T01:26:52.087Z,73.00
2018-08-18T01:29:19.403Z,73.20
2018-08-18T01:31:46.761Z,73.00
2018-08-18T01:34:14.104Z,72.80
2018-08-18T01:36:41.417Z,72.40
2018-08-18T01:39:09.401Z,72.20
2018-08-18T01:41:36.766Z,72.00
2018-08-18T01:44:11.311Z,72.00
2018-08-18T01:46:38.632Z,71.80
2018-08-18T01:49:28.273Z,71.70
2018-08-18T01:51:56.336Z,71.80
2018-08-18T01:54:23.674Z,71.30
2018-08-18T01:56:50.992Z,71.10
2018-08-18T01:59:18.413Z,70.80
2018-08-18T02:01:45.749Z,70.90
2018-08-18T02:04:13.103Z,70.50
2018-08-18T02:06:40.462Z,70.20
2018-08-18T02:09:07.778Z,70.10
2018-08-18T02:11:36.137Z,69.80
2018-08-18T02:14:03.467Z,69.40
2018-08-18T02:16:30.802Z,70.00
2018-08-18T02:18:58.238Z,70.10
2018-08-18T02:21:30.406Z,70.20
2018-08-18T02:23:57.713Z,69.90
2018-08-18T02:26:25.040Z,69.70
2018-08-18T02:28:52.359Z,69.70
2018-08-18T02:31:19.654Z,69.40
2018-08-18T02:33:46.943Z,69.30
2018-08-18T02:36:14.300Z,69.40
2018-08-18T02:38:41.593Z,69.20
2018-08-18T02:41:08.890Z,69.10
2018-08-18T02:43:36.198Z,69.60
2018-08-18T02:46:15.021Z,69.50
2018-08-18T02:48:42.827Z,69.40
2018-08-18T02:51:10.151Z,68.90
2018-08-18T02:53:37.457Z,69.30
2018-08-18T02:56:04.768Z,69.70
2018-08-18T02:58:32.092Z,70.10
2018-08-18T03:00:59.403Z,69.90
2018-08-18T03:03:26.719Z,70.10
2018-08-18T03:05:54.035Z,70.60
2018-08-18T03:08:21.418Z,70.20
2018-08-18T03:10:48.779Z,69.80
2018-08-18T03:13:16.132Z,70.20
2018-08-18T03:15:50.967Z,70.60
2018-08-18T03:18:28.374Z,70.60
2018-08-18T03:20:55.715Z,70.80
2018-08-18T03:23:23.060Z,70.80
2018-08-18T03:25:50.357Z,70.60
2018-08-18T03:28:17.727Z,70.90
2018-08-18T03:30:45.201Z,70.80
2018-08-18T03:33:12.598Z,70.90
2018-08-18T03:35:39.888Z,71.40
2018-08-18T03:38:07.206Z,71.40
2018-08-18T03:40:34.543Z,71.60
2018-08-18T03:43:01.918Z,71.60
2018-08-18T03:45:29.262Z,71.30
2018-08-18T03:47:56.587Z,70.30
2018-08-18T03:50:28.607Z,70.20
2018-08-18T03:52:55.941Z,70.50
2018-08-18T03:55:33.620Z,69.90
2018-08-18T03:58:00.980Z,70.30
2018-08-18T04:00:28.563Z,70.20
2018-08-18T04:02:55.889Z,70.60
2018-08-18T04:05:23.209Z,70.80
2018-08-18T04:07:50.539Z,71.90
2018-08-18T04:10:17.878Z,72.00
2018-08-18T04:12:45.315Z,72.10
2018-08-18T04:15:12.647Z,71.90
2018-08-18T04:17:39.965Z,72.10
2018-08-18T04:20:07.311Z,71.60
2018-08-18T04:22:34.637Z,71.10
2018-08-18T04:25:02.091Z,71.20
2018-08-18T04:27:37.340Z,71.00
2018-08-18T04:30:07.772Z,71.00
2018-08-18T04:32:54.415Z,70.70
2018-08-18T04:35:21.838Z,70.80
2018-08-18T04:37:49.231Z,70.70
2018-08-18T04:40:16.619Z,70.50
2018-08-18T04:42:44.129Z,70.80
2018-08-18T04:45:13.271Z,70.50
2018-08-18T04:47:40.574Z,70.10
2018-08-18T04:50:07.900Z,70.10
2018-08-18T04:52:35.220Z,69.80
2018-08-18T04:55:02.554Z,69.90
2018-08-18T04:57:29.872Z,70.20
2018-08-18T04:59:57.169Z,69.80
2018-08-18T05:02:24.503Z,70.20
2018-08-18T05:04:51.806Z,70.70
2018-08-18T05:07:19.174Z,71.00
2018-08-18T05:09:46.511Z,71.10
2018-08-18T05:12:13.865Z,70.60
2018-08-18T05:14:41.150Z,70.10
2018-08-18T05:17:08.455Z,70.20
2018-08-18T05:19:35.805Z,69.80
2018-08-18T05:22:03.148Z,70.10
2018-08-18T05:24:30.459Z,70.20
2018-08-18T05:26:59.291Z,68.90
2018-08-18T05:29:26.631Z,68.20
2018-08-18T05:31:53.951Z,68.20
2018-08-18T05:34:21.287Z,67.80
2018-08-18T05:36:48.627Z,68.00
2018-08-18T05:39:16.016Z,68.30
2018-08-18T05:41:43.366Z,68.10
2018-08-18T05:44:10.722Z,68.10
2018-08-18T05:46:38.059Z,68.00
2018-08-18T05:49:05.559Z,67.90
2018-08-18T05:51:32.916Z,67.60
2018-08-18T05:54:00.248Z,67.50
2018-08-18T05:56:27.593Z,67.50
2018-08-18T05:58:54.906Z,67.40
2018-08-18T06:01:26.717Z,67.20
2018-08-18T06:03:54.026Z,67.00
2018-08-18T06:06:21.376Z,67.00
2018-08-18T06:08:48.721Z,67.00
2018-08-18T06:11:16.094Z,66.00
2018-08-18T06:13:43.509Z,66.40
2018-08-18T06:16:10.832Z,66.00
2018-08-18T06:18:38.253Z,66.10
2018-08-18T06:21:05.824Z,66.10
2018-08-18T06:23:33.158Z,65.90
2018-08-18T06:26:00.462Z,65.20
2018-08-18T06:28:27.793Z,65.40
2018-08-18T06:30:55.116Z,65.60
2018-08-18T06:33:22.438Z,65.40
2018-08-18T06:35:49.751Z,64.90
2018-08-18T06:38:17.121Z,64.60
2018-08-18T06:40:44.503Z,64.50
2018-08-18T06:43:11.851Z,64.30
2018-08-18T06:45:39.182Z,64.70
2018-08-18T06:48:16.497Z,64.70
2018-08-18T06:50:43.884Z,65.20
2018-08-18T06:53:11.208Z,65.80
2018-08-18T06:55:38.549Z,64.90
2018-08-18T06:58:05.882Z,64.50
2018-08-18T07:00:33.491Z,63.60
2018-08-18T07:03:00.775Z,63.00
2018-08-18T07:05:28.086Z,63.10
2018-08-18T07:07:55.402Z,63.00
2018-08-18T07:10:28.052Z,62.80
2018-08-18T07:12:55.611Z,62.60
2018-08-18T07:15:23.695Z,61.90
2018-08-18T07:17:51.026Z,61.60
2018-08-18T07:20:18.425Z,61.40
2018-08-18T07:22:45.760Z,61.80
2018-08-18T07:25:13.103Z,61.30
2018-08-18T07:27:40.447Z,61.10
2018-08-18T07:30:07.786Z,60.80
2018-08-18T07:32:35.118Z,61.00
2018-08-18T07:35:02.494Z,61.70
2018-08-18T07:37:29.874Z,61.20
2018-08-18T07:39:57.232Z,60.90
2018-08-18T07:42:24.586Z,61.00
2018-08-18T07:44:51.909Z,58.70
2018-08-18T07:47:19.353Z,59.00
2018-08-18T07:49:46.679Z,59.10
2018-08-18T07:52:13.997Z,59.50
2018-08-18T07:54:41.312Z,59.50
2018-08-18T07:57:08.713Z,59.20
2018-08-18T07:59:36.096Z,59.20
2018-08-18T08:02:03.432Z,59.60
2018-08-18T08:04:30.751Z,59.70
2018-08-18T08:06:58.104Z,59.60
2018-08-18T08:09:26.040Z,59.60
2018-08-18T08:11:53.353Z,58.90
2018-08-18T08:14:20.707Z,58.70
2018-08-18T08:16:48.030Z,59.10
2018-08-18T08:19:15.342Z,59.10
2018-08-18T08:21:42.821Z,58.60
2018-08-18T08:24:10.194Z,59.30
2018-08-18T08:26:37.502Z,58.50
2018-08-18T08:29:04.863Z,58.60
2018-08-18T08:31:32.327Z,57.60
2018-08-18T08:33:59.618Z,57.90
2018-08-18T08:36:26.943Z,57.70
2018-08-18T08:38:56.420Z,58.30
2018-08-18T08:41:25.407Z,58.00
2018-08-18T08:43:52.741Z,57.30
2018-08-18T08:46:20.055Z,56.80
2018-08-18T08:48:53.258Z,56.40
2018-08-18T08:51:20.557Z,56.40
2018-08-18T08:53:47.975Z,56.70
2018-08-18T08:56:15.878Z,57.20
2018-08-18T08:58:43.177Z,56.90
2018-08-18T09:01:10.578Z,56.80
2018-08-18T09:03:38.570Z,56.30
2018-08-18T09:06:05.907Z,56.20
2018-08-18T09:08:33.211Z,55.70
2018-08-18T09:11:00.556Z,56.30
2018-08-18T09:13:27.907Z,56.50
2018-08-18T09:15:55.263Z,56.50
2018-08-18T09:18:22.550Z,56.70
2018-08-18T09:20:49.950Z,55.50
2018-08-18T09:23:17.274Z,55.80
2018-08-18T09:25:44.660Z,56.10
2018-08-18T09:28:11.960Z,56.20
2018-08-18T09:30:39.456Z,56.20
2018-08-18T09:33:06.772Z,55.30
2018-08-18T09:35:45.577Z,54.90
2018-08-18T09:38:13.252Z,55.50
2018-08-18T09:40:40.677Z,55.80
2018-08-18T09:43:07.977Z,55.60
2018-08-18T09:45:35.658Z,56.10
2018-08-18T09:48:03.115Z,56.50
2018-08-18T09:50:30.436Z,56.80
2018-08-18T09:52:57.747Z,57.30
2018-08-18T09:55:25.082Z,56.50
2018-08-18T09:57:52.378Z,57.00
2018-08-18T10:00:20.088Z,56.10
2018-08-18T10:02:47.444Z,56.20
2018-08-18T10:05:14.821Z,56.80
2018-08-18T10:07:42.156Z,56.70
2018-08-18T10:10:10.990Z,55.90
2018-08-18T10:12:38.327Z,55.90
2018-08-18T10:15:05.961Z,55.90
2018-08-18T10:17:33.755Z,56.10
2018-08-18T10:20:01.057Z,55.80
2018-08-18T10:22:28.430Z,56.10
2018-08-18T10:24:55.735Z,56.40
2018-08-18T10:27:23.140Z,56.30
2018-08-18T10:29:50.423Z,55.90
2018-08-18T10:32:17.810Z,56.50
2018-08-18T10:34:45.270Z,56.20
2018-08-18T10:37:13.689Z,55.30
2018-08-18T10:39:40.973Z,55.70
2018-08-18T10:42:11.800Z,55.90
2018-08-18T10:44:42.847Z,55.70
2018-08-18T10:47:12.649Z,55.30
2018-08-18T10:49:51.423Z,55.50
2018-08-18T10:52:57.842Z,55.10
2018-08-18T10:55:25.176Z,54.80
2018-08-18T10:57:59.596Z,54.50
2018-08-18T11:00:26.958Z,54.90
2018-08-18T11:02:54.323Z,54.80
2018-08-18T11:05:21.666Z,55.40
2018-08-18T11:07:50.202Z,56.30
2018-08-18T11:10:17.569Z,55.20
2018-08-18T11:12:45.171Z,54.90
2018-08-18T11:15:12.528Z,54.20
2018-08-18T11:17:39.886Z,54.30
2018-08-18T11:20:07.223Z,54.20
2018-08-18T11:23:05.368Z,54.60
2018-08-18T11:25:34.613Z,55.30
2018-08-18T11:28:01.955Z,53.90
2018-08-18T11:30:29.303Z,54.30
2018-08-18T11:32:56.631Z,54.30
2018-08-18T11:35:23.956Z,54.10
2018-08-18T11:38:07.467Z,53.70
2018-08-18T11:40:34.831Z,53.60
2018-08-18T11:43:04.538Z,53.20
2018-08-18T11:45:31.839Z,52.90
2018-08-18T11:48:10.202Z,53.00
2018-08-18T11:50:37.535Z,52.20
2018-08-18T11:53:04.897Z,51.90
2018-08-18T11:55:32.247Z,52.20
2018-08-18T11:57:59.542Z,52.10
2018-08-18T12:00:26.847Z,52.50
2018-08-18T12:02:54.171Z,52.50
2018-08-18T12:05:21.503Z,52.90
2018-08-18T12:07:49.837Z,52.20
2018-08-18T12:10:17.726Z,52.50
2018-08-18T12:12:45.187Z,53.10
2018-08-18T12:15:12.515Z,52.50
2018-08-18T12:17:51.343Z,52.40
2018-08-18T12:20:20.404Z,52.80
2018-08-18T12:22:47.770Z,51.90
2018-08-18T12:25:15.287Z,52.00
2018-08-18T12:27:42.606Z,51.60
2018-08-18T12:30:20.297Z,52.10
2018-08-18T12:32:47.791Z,51.30
2018-08-18T12:35:15.178Z,51.10
2018-08-18T12:37:42.499Z,51.40
2018-08-18T12:40:09.812Z,51.30
2018-08-18T12:42:37.204Z,51.30
2018-08-18T12:45:04.864Z,51.20
2018-08-18T12:47:32.494Z,51.90
2018-08-18T12:50:00.560Z,51.00
2018-08-18T12:52:37.748Z,52.20
2018-08-18T12:55:05.078Z,52.20
2018-08-18T12:57:38.691Z,51.50
2018-08-18T13:00:05.996Z,51.40
2018-08-18T13:02:44.215Z,51.70
2018-08-18T13:05:11.542Z,51.50
2018-08-18T13:07:38.854Z,52.30
2018-08-18T13:10:14.589Z,52.10
2018-08-18T13:12:41.960Z,52.20
2018-08-18T13:15:09.326Z,51.70
2018-08-18T13:17:36.688Z,51.90
2018-08-18T13:20:04.457Z,51.40
2018-08-18T13:22:31.750Z,51.10
2018-08-18T13:24:59.144Z,50.60
2018-08-18T13:27:26.476Z,50.70
2018-08-18T13:29:53.863Z,50.80
2018-08-18T13:32:21.167Z,50.50
2018-08-18T13:34:48.490Z,51.30
2018-08-18T13:37:15.796Z,51.30
2018-08-18T13:39:43.190Z,50.50
2018-08-18T13:42:20.211Z,50.30
2018-08-18T13:44:47.554Z,50.70
2018-08-18T13:47:15.139Z,49.90
2018-08-18T13:49:42.378Z,49.80
2018-08-18T13:52:09.703Z,50.20
2018-08-18T13:54:36.989Z,50.20
2018-08-18T13:57:04.311Z,49.50
2018-08-18T13:59:38.269Z,49.50
2018-08-18T14:02:05.878Z,49.00
2018-08-18T14:04:33.198Z,48.10
2018-08-18T14:07:00.579Z,47.90
2018-08-18T14:09:27.890Z,48.00
2018-08-18T14:11:55.941Z,47.60
2018-08-18T14:14:23.271Z,48.00
2018-08-18T14:16:50.647Z,47.90
2018-08-18T14:19:19.675Z,47.40
2018-08-18T14:21:46.997Z,47.70
2018-08-18T14:24:14.368Z,47.70
2018-08-18T14:26:41.675Z,46.90
2018-08-18T14:29:09.043Z,47.10
2018-08-18T14:31:36.393Z,46.60
2018-08-18T14:34:03.814Z,47.00
2018-08-18T14:36:31.080Z,47.10
2018-08-18T14:38:58.437Z,47.10
2018-08-18T14:41:36.610Z,47.30
2018-08-18T14:44:03.942Z,47.30
2018-08-18T14:46:31.315Z,46.10
2018-08-18T14:48:58.607Z,46.40
2018-08-18T14:51:25.910Z,47.20
2018-08-18T14:53:53.214Z,47.30
2018-08-18T14:56:20.528Z,47.10
2018-08-18T14:58:47.877Z,45.80
2018-08-18T15:01:15.180Z,45.80
2018-08-18T15:03:42.545Z,46.30
2018-08-18T15:06:09.882Z,46.80
2018-08-18T15:08:37.290Z,46.30
2018-08-18T15:11:04.694Z,46.80
2018-08-18T15:13:32.017Z,46.90
2018-08-18T15:15:59.329Z,46.50
2018-08-18T15:18:26.683Z,47.00
2018-08-18T15:20:53.932Z,46.90
2018-08-18T15:23:21.247Z,46.60
2018-08-18T15:25:48.651Z,46.70
2018-08-18T15:28:16.170Z,46.70
2018-08-18T15:30:43.480Z,45.90
2018-08-18T15:33:14.055Z,46.10
2018-08-18T15:35:41.366Z,45.40
2018-08-18T15:38:08.743Z,45.40
2018-08-18T15:40:36.117Z,46.20
2018-08-18T15:43:03.423Z,44.80
2018-08-18T15:45:30.776Z,45.00
2018-08-18T15:47:58.971Z,44.50
2018-08-18T15:50:26.259Z,45.10
2018-08-18T15:52:53.663Z,45.40
2018-08-18T15:55:21.013Z,47.50
2018-08-18T15:57:48.368Z,44.60
2018-08-18T16:00:40.523Z,44.40
2018-08-18T16:03:07.906Z,45.20
2018-08-18T16:05:35.372Z,45.40
2018-08-18T16:08:02.727Z,44.30
2018-08-18T16:10:30.061Z,44.50
2018-08-18T16:12:57.516Z,44.30
2018-08-18T16:15:25.931Z,44.20
2018-08-18T16:17:53.282Z,44.40
2018-08-18T16:20:20.605Z,43.80
2018-08-18T16:22:48.918Z,43.80
2018-08-18T16:25:29.162Z,43.30
2018-08-18T16:27:56.654Z,42.00
2018-08-18T16:30:24.009Z,41.30
2018-08-18T16:33:02.699Z,41.20
2018-08-18T16:35:30.060Z,41.50
2018-08-18T16:37:57.439Z,41.90
2018-08-18T16:40:24.809Z,41.20
2018-08-18T16:42:52.223Z,41.00
2018-08-18T16:45:19.478Z,41.40
2018-08-18T16:47:46.820Z,41.50
2018-08-18T16:50:14.272Z,40.80
2018-08-18T16:52:41.705Z,40.90
2018-08-18T16:55:09.122Z,41.00
2018-08-18T16:57:36.744Z,40.10
2018-08-18T17:00:04.139Z,40.20
2018-08-18T17:02:36.160Z,40.10
2018-08-18T17:05:04.784Z,39.80
2018-08-18T17:07:32.102Z,40.30
2018-08-18T17:09:59.476Z,40.90
2018-08-18T17:12:27.193Z,40.60
2018-08-18T17:14:54.682Z,40.50
2018-08-18T17:17:22.785Z,40.90
2018-08-18T17:19:50.114Z,41.20
2018-08-18T17:22:17.498Z,42.10
2018-08-18T17:24:44.845Z,42.30
2018-08-18T17:27:12.182Z,40.60
2018-08-18T17:29:39.494Z,40.60
2018-08-18T17:32:06.826Z,41.30
2018-08-18T17:34:34.142Z,41.40
2018-08-18T17:37:01.458Z,41.50
2018-08-18T17:39:28.772Z,41.90
2018-08-18T17:41:56.164Z,42.10
2018-08-18T17:44:23.543Z,41.90
2018-08-18T17:46:50.903Z,41.70
2018-08-18T17:49:18.528Z,41.40
2018-08-18T17:51:57.690Z,41.40
2018-08-18T17:54:24.994Z,41.50
2018-08-18T17:56:52.291Z,41.60
2018-08-18T17:59:19.619Z,42.40
2018-08-18T18:01:58.478Z,42.30
2018-08-18T18:04:25.833Z,42.70
2018-08-18T18:06:53.277Z,43.00
2018-08-18T18:09:20.588Z,43.10
2018-08-18T18:11:47.902Z,43.60
2018-08-18T18:14:16.271Z,43.80
2018-08-18T18:16:43.582Z,44.50
2018-08-18T18:19:10.908Z,44.20
2018-08-18T18:21:40.851Z,44.50
2018-08-18T18:24:08.315Z,44.80
2018-08-18T18:26:35.779Z,45.40
2018-08-18T18:29:03.129Z,46.10
2018-08-18T18:31:30.441Z,46.20
2018-08-18T18:33:57.761Z,46.60
2018-08-18T18:36:25.090Z,47.20
2018-08-18T18:38:54.303Z,47.10
2018-08-18T18:41:21.665Z,47.40
2018-08-18T18:43:54.534Z,47.60
2018-08-18T18:46:21.882Z,48.30
2018-08-18T18:48:49.283Z,48.60
2018-08-18T18:51:16.638Z,48.90
2018-08-18T18:53:46.699Z,48.90
2018-08-18T18:56:14.825Z,48.90
2018-08-18T18:58:42.446Z,48.60
2018-08-18T19:01:09.738Z,49.20
2018-08-18T19:03:37.057Z,49.40
2018-08-18T19:06:04.362Z,49.80
2018-08-18T19:08:31.688Z,50.40
2018-08-18T19:11:01.926Z,50.30
2018-08-18T19:13:29.259Z,50.80
2018-08-18T19:15:56.681Z,50.90
2018-08-18T19:18:23.961Z,50.80
2018-08-18T19:20:51.266Z,51.20
2018-08-18T19:23:19.134Z,51.20
2018-08-18T19:25:46.471Z,51.30
2018-08-18T19:28:14.578Z,51.40
2018-08-18T19:30:41.970Z,51.50
2018-08-18T19:33:09.551Z,51.60
2018-08-18T19:35:36.917Z,51.70
2018-08-18T19:38:04.759Z,51.80
2018-08-18T19:40:32.090Z,52.00
2018-08-18T19:42:59.367Z,52.00
2018-08-18T19:45:26.725Z,51.90
2018-08-18T19:47:54.060Z,52.20
2018-08-18T19:50:21.371Z,52.30
2018-08-18T19:52:50.826Z,52.60
2018-08-18T19:55:18.093Z,52.50
2018-08-18T19:57:45.429Z,52.50
2018-08-18T20:00:12.783Z,52.80
2018-08-18T20:02:49.320Z,53.10
2018-08-18T20:05:17.507Z,53.30
2018-08-18T20:07:44.806Z,53.40
2018-08-18T20:10:12.127Z,53.80
2018-08-18T20:12:39.468Z,54.10
2018-08-18T20:15:06.782Z,53.50
2018-08-18T20:17:34.148Z,53.60
2018-08-18T20:20:01.458Z,53.90
2018-08-18T20:22:28.808Z,53.90
2018-08-18T20:24:56.095Z,54.10
2018-08-18T20:27:23.788Z,54.20
2018-08-18T20:29:51.074Z,54.90
2018-08-18T20:32:18.383Z,56.00
2018-08-18T20:34:45.828Z,54.60
2018-08-18T20:37:13.034Z,54.70
2018-08-18T20:39:40.414Z,54.80
2018-08-18T20:42:07.724Z,55.10
2018-08-18T20:44:35.116Z,57.30
2018-08-18T20:47:02.421Z,57.30
2018-08-18T20:49:29.735Z,57.20
2018-08-18T20:51:57.086Z,56.90
2018-08-18T20:54:24.445Z,57.00
2018-08-18T20:56:51.743Z,57.30
2018-08-18T20:59:19.122Z,59.60
2018-08-18T21:01:46.418Z,58.40
2018-08-18T21:04:13.796Z,59.80
2018-08-18T21:06:41.323Z,58.50
2018-08-18T21:09:20.296Z,59.30
2018-08-18T21:11:47.643Z,59.00
2018-08-18T21:14:14.961Z,59.10
2018-08-18T21:16:42.272Z,58.20
2018-08-18T21:19:09.582Z,58.00
2018-08-18T21:21:36.882Z,58.60
2018-08-18T21:24:04.240Z,57.90
2018-08-18T21:26:31.541Z,57.90
2018-08-18T21:28:58.874Z,57.90
2018-08-18T21:31:26.300Z,58.40
2018-08-18T21:33:55.251Z,58.70
2018-08-18T21:36:22.672Z,59.00
2018-08-18T21:38:49.878Z,59.80
2018-08-18T21:41:17.207Z,58.50
2018-08-18T21:43:45.206Z,58.50
2018-08-18T21:46:12.624Z,58.40
2018-08-18T21:48:49.413Z,58.80
2018-08-18T21:51:16.739Z,58.90
2018-08-18T21:53:44.074Z,58.60
2018-08-18T21:56:11.456Z,59.10
2018-08-18T21:58:38.822Z,58.50
2018-08-18T22:01:06.156Z,58.90
2018-08-18T22:03:33.536Z,58.60
2018-08-18T22:06:00.774Z,58.90
2018-08-18T22:08:28.102Z,59.50
2018-08-18T22:10:55.462Z,59.00
2018-08-18T22:13:23.060Z,59.00
2018-08-18T22:15:50.335Z,58.80
2018-08-18T22:18:17.654Z,58.70
2018-08-18T22:20:44.971Z,58.70
2018-08-18T22:23:12.272Z,58.70
2018-08-18T22:25:39.596Z,58.60
2018-08-18T22:28:06.890Z,58.70
2018-08-18T22:30:34.204Z,58.70
2018-08-18T22:33:01.538Z,58.80
2018-08-18T22:35:28.836Z,58.90
2018-08-18T22:37:56.239Z,59.10
2018-08-18T22:40:23.754Z,59.20
2018-08-18T22:42:51.034Z,59.30
2018-08-18T22:45:23.529Z,59.80
2018-08-18T22:47:50.814Z,59.90
2018-08-18T22:50:18.127Z,60.80
2018-08-18T22:52:46.224Z,60.60
2018-08-18T22:55:13.551Z,61.10
2018-08-18T22:57:41.552Z,60.30
2018-08-18T23:00:08.890Z,60.40
2018-08-18T23:02:36.222Z,60.40
2018-08-18T23:05:03.550Z,60.70
2018-08-18T23:07:30.851Z,60.60
2018-08-18T23:09:58.191Z,60.60
2018-08-18T23:12:25.524Z,61.50
2018-08-18T23:14:52.927Z,62.80
2018-08-18T23:17:20.263Z,63.20
2018-08-18T23:19:47.568Z,63.30
2018-08-18T23:22:26.357Z,63.50
2018-08-18T23:24:54.724Z,63.60
2018-08-18T23:27:22.024Z,63.10
2018-08-18T23:29:49.349Z,62.90
2018-08-18T23:32:16.647Z,63.50
2018-08-18T23:34:43.961Z,63.50
2018-08-18T23:37:11.287Z,63.90
2018-08-18T23:39:38.584Z,64.90
2018-08-18T23:42:14.011Z,64.80
2018-08-18T23:44:41.292Z,64.60
2018-08-18T23:47:08.618Z,65.70
2018-08-18T23:49:35.938Z,65.50
2018-08-18T23:52:03.234Z,65.10
2018-08-18T23:54:31.126Z,65.30
2018-08-18T23:56:58.451Z,65.30
2018-08-18T23:59:25.798Z,66.00
